sensor_id;sensor_type;location;lat;lon;timestamp;pressure;altitude;pressure_sealevel;temperature;humidity
54872;BME280;43914;57.680;11.982;2023-02-23T00:00:29;100521.98;;;1.68;89.27
54872;BME280;43914;57.680;11.982;2023-02-23T00:02:59;100520.81;;;1.67;89.30
54872;BME280;43914;57.680;11.982;2023-02-23T00:05:30;100516.82;;;1.67;89.44
54872;BME280;43914;57.680;11.982;2023-02-23T00:07:56;100510.71;;;1.68;89.63
54872;BME280;43914;57.680;11.982;2023-02-23T00:10:22;100510.66;;;1.68;89.64
54872;BME280;43914;57.680;11.982;2023-02-23T00:12:56;100513.95;;;1.69;89.68
54872;BME280;43914;57.680;11.982;2023-02-23T00:15:23;100514.20;;;1.68;89.65
54872;BME280;43914;57.680;11.982;2023-02-23T00:17:53;100509.55;;;1.69;89.87
54872;BME280;43914;57.680;11.982;2023-02-23T00:20:20;100509.60;;;1.68;89.88
54872;BME280;43914;57.680;11.982;2023-02-23T00:22:52;100511.80;;;1.69;89.91
54872;BME280;43914;57.680;11.982;2023-02-23T00:25:18;100505.55;;;1.70;90.02
54872;BME280;43914;57.680;11.982;2023-02-23T00:27:43;100500.09;;;1.70;90.07
54872;BME280;43914;57.680;11.982;2023-02-23T00:30:15;100501.14;;;1.70;90.20
54872;BME280;43914;57.680;11.982;2023-02-23T00:32:43;100493.63;;;1.69;90.29
54872;BME280;43914;57.680;11.982;2023-02-23T00:35:09;100492.12;;;1.68;90.43
54872;BME280;43914;57.680;11.982;2023-02-23T00:37:46;100488.91;;;1.69;90.58
54872;BME280;43914;57.680;11.982;2023-02-23T00:40:14;100488.77;;;1.68;90.56
54872;BME280;43914;57.680;11.982;2023-02-23T00:42:44;100485.68;;;1.69;91.04
54872;BME280;43914;57.680;11.982;2023-02-23T00:45:13;100483.39;;;1.69;91.28
54872;BME280;43914;57.680;11.982;2023-02-23T00:47:40;100480.18;;;1.69;91.78
54872;BME280;43914;57.680;11.982;2023-02-23T00:50:09;100478.12;;;1.69;92.07
54872;BME280;43914;57.680;11.982;2023-02-23T00:52:38;100468.38;;;1.67;92.80
54872;BME280;43914;57.680;11.982;2023-02-23T00:55:06;100465.64;;;1.64;94.02
54872;BME280;43914;57.680;11.982;2023-02-23T00:57:32;100463.95;;;1.61;95.21
54872;BME280;43914;57.680;11.982;2023-02-23T00:59:58;100467.11;;;1.60;96.01
54872;BME280;43914;57.680;11.982;2023-02-23T01:02:24;100464.65;;;1.57;96.80
54872;BME280;43914;57.680;11.982;2023-02-23T01:04:49;100458.25;;;1.53;97.94
54872;BME280;43914;57.680;11.982;2023-02-23T01:07:15;100451.98;;;1.51;98.71
54872;BME280;43914;57.680;11.982;2023-02-23T01:09:40;100448.68;;;1.44;99.19
54872;BME280;43914;57.680;11.982;2023-02-23T01:12:06;100455.63;;;1.43;99.56
54872;BME280;43914;57.680;11.982;2023-02-23T01:14:33;100452.13;;;1.40;100.00
54872;BME280;43914;57.680;11.982;2023-02-23T01:16:59;100449.77;;;1.39;100.00
54872;BME280;43914;57.680;11.982;2023-02-23T01:19:25;100449.27;;;1.36;100.00
54872;BME280;43914;57.680;11.982;2023-02-23T01:21:51;100448.80;;;1.34;100.00
54872;BME280;43914;57.680;11.982;2023-02-23T01:24:16;100442.65;;;1.31;100.00
54872;BME280;43914;57.680;11.982;2023-02-23T01:26:43;100443.00;;;1.27;100.00
54872;BME280;43914;57.680;11.982;2023-02-23T01:29:16;100441.64;;;1.23;100.00
54872;BME280;43914;57.680;11.982;2023-02-23T01:31:45;100440.36;;;1.19;100.00
54872;BME280;43914;57.680;11.982;2023-02-23T01:34:12;100432.44;;;1.17;100.00
54872;BME280;43914;57.680;11.982;2023-02-23T01:36:40;100431.95;;;1.14;100.00
54872;BME280;43914;57.680;11.982;2023-02-23T01:39:09;100424.73;;;1.12;100.00
54872;BME280;43914;57.680;11.982;2023-02-23T01:41:36;100421.92;;;1.09;100.00
54872;BME280;43914;57.680;11.982;2023-02-23T01:44:57;100420.98;;;1.08;100.00
54872;BME280;43914;57.680;11.982;2023-02-23T01:46:49;100412.23;;;1.05;100.00
54872;BME280;43914;57.680;11.982;2023-02-23T01:49:18;100415.50;;;1.04;100.00
54872;BME280;43914;57.680;11.982;2023-02-23T01:51:49;100409.02;;;1.03;100.00
54872;BME280;43914;57.680;11.982;2023-02-23T01:54:26;100407.67;;;1.00;100.00
54872;BME280;43914;57.680;11.982;2023-02-23T01:56:55;100410.44;;;0.99;100.00
54872;BME280;43914;57.680;11.982;2023-02-23T01:59:32;100404.07;;;0.99;100.00
54872;BME280;43914;57.680;11.982;2023-02-23T02:02:00;100401.63;;;0.99;100.00
54872;BME280;43914;57.680;11.982;2023-02-23T02:04:29;100398.94;;;0.97;100.00
54872;BME280;43914;57.680;11.982;2023-02-23T02:07:03;100388.30;;;0.98;100.00
54872;BME280;43914;57.680;11.982;2023-02-23T02:09:29;100387.67;;;0.97;100.00
54872;BME280;43914;57.680;11.982;2023-02-23T02:12:02;100384.25;;;0.98;100.00
54872;BME280;43914;57.680;11.982;2023-02-23T02:14:32;100380.93;;;0.97;100.00
54872;BME280;43914;57.680;11.982;2023-02-23T02:17:06;100380.82;;;0.97;100.00
54872;BME280;43914;57.680;11.982;2023-02-23T02:39:23;100339.27;;;0.90;100.00
54872;BME280;43914;57.680;11.982;2023-02-23T02:47:22;100333.70;;;0.91;100.00
54872;BME280;43914;57.680;11.982;2023-02-23T02:50:35;100331.03;;;0.91;100.00
54872;BME280;43914;57.680;11.982;2023-02-23T02:53:07;100323.91;;;0.92;100.00
54872;BME280;43914;57.680;11.982;2023-02-23T02:55:37;100325.08;;;0.92;100.00
54872;BME280;43914;57.680;11.982;2023-02-23T02:58:09;100325.45;;;0.94;100.00
54872;BME280;43914;57.680;11.982;2023-02-23T03:00:41;100326.16;;;0.96;100.00
54872;BME280;43914;57.680;11.982;2023-02-23T03:03:37;100324.40;;;1.00;100.00
54872;BME280;43914;57.680;11.982;2023-02-23T03:10:17;100317.35;;;1.00;100.00
54872;BME280;43914;57.680;11.982;2023-02-23T03:13:16;100313.17;;;1.02;100.00
54872;BME280;43914;57.680;11.982;2023-02-23T03:19:19;100311.30;;;1.03;100.00
54872;BME280;43914;57.680;11.982;2023-02-23T03:25:27;100301.78;;;1.01;100.00
54872;BME280;43914;57.680;11.982;2023-02-23T03:28:17;100298.98;;;1.01;100.00
54872;BME280;43914;57.680;11.982;2023-02-23T03:34:20;100290.19;;;0.98;100.00
54872;BME280;43914;57.680;11.982;2023-02-23T03:40:05;100281.45;;;0.97;100.00
54872;BME280;43914;57.680;11.982;2023-02-23T03:42:54;100285.78;;;0.98;100.00
54872;BME280;43914;57.680;11.982;2023-02-23T03:45:42;100289.63;;;0.98;100.00
54872;BME280;43914;57.680;11.982;2023-02-23T03:48:28;100287.16;;;0.99;100.00
54872;BME280;43914;57.680;11.982;2023-02-23T03:51:15;100291.52;;;0.99;100.00
54872;BME280;43914;57.680;11.982;2023-02-23T03:54:25;100285.78;;;1.00;100.00
54872;BME280;43914;57.680;11.982;2023-02-23T03:57:08;100280.15;;;0.98;100.00
54872;BME280;43914;57.680;11.982;2023-02-23T04:00:02;100273.55;;;0.99;100.00
54872;BME280;43914;57.680;11.982;2023-02-23T04:02:50;100272.00;;;0.98;100.00
54872;BME280;43914;57.680;11.982;2023-02-23T04:05:38;100270.16;;;0.99;100.00
54872;BME280;43914;57.680;11.982;2023-02-23T04:08:29;100262.48;;;1.00;100.00
54872;BME280;43914;57.680;11.982;2023-02-23T04:11:22;100260.44;;;1.02;100.00
54872;BME280;43914;57.680;11.982;2023-02-23T04:14:18;100250.83;;;1.03;100.00
54872;BME280;43914;57.680;11.982;2023-02-23T04:16:46;100248.27;;;1.02;100.00
54872;BME280;43914;57.680;11.982;2023-02-23T04:19:11;100240.00;;;1.03;100.00
54872;BME280;43914;57.680;11.982;2023-02-23T04:21:37;100236.99;;;1.03;100.00
54872;BME280;43914;57.680;11.982;2023-02-23T04:24:03;100236.27;;;1.04;100.00
54872;BME280;43914;57.680;11.982;2023-02-23T04:26:28;100238.94;;;1.03;100.00
54872;BME280;43914;57.680;11.982;2023-02-23T04:28:54;100234.77;;;1.05;100.00
54872;BME280;43914;57.680;11.982;2023-02-23T04:31:22;100234.04;;;1.07;100.00
54872;BME280;43914;57.680;11.982;2023-02-23T04:33:49;100232.52;;;1.08;100.00
54872;BME280;43914;57.680;11.982;2023-02-23T04:36:15;100229.92;;;1.10;100.00
54872;BME280;43914;57.680;11.982;2023-02-23T04:38:41;100228.05;;;1.11;100.00
54872;BME280;43914;57.680;11.982;2023-02-23T04:41:07;100228.92;;;1.11;100.00
54872;BME280;43914;57.680;11.982;2023-02-23T04:43:34;100225.91;;;1.11;100.00
54872;BME280;43914;57.680;11.982;2023-02-23T04:45:59;100225.55;;;1.11;100.00
54872;BME280;43914;57.680;11.982;2023-02-23T04:48:25;100224.61;;;1.12;100.00
54872;BME280;43914;57.680;11.982;2023-02-23T04:50:52;100225.36;;;1.13;100.00
54872;BME280;43914;57.680;11.982;2023-02-23T04:53:18;100223.16;;;1.14;100.00
54872;BME280;43914;57.680;11.982;2023-02-23T04:55:43;100219.83;;;1.16;100.00
54872;BME280;43914;57.680;11.982;2023-02-23T04:58:09;100221.44;;;1.18;100.00
54872;BME280;43914;57.680;11.982;2023-02-23T05:00:38;100219.21;;;1.20;100.00
54872;BME280;43914;57.680;11.982;2023-02-23T05:03:05;100220.40;;;1.22;100.00
54872;BME280;43914;57.680;11.982;2023-02-23T05:05:30;100218.63;;;1.24;100.00
54872;BME280;43914;57.680;11.982;2023-02-23T05:07:56;100217.68;;;1.25;100.00
54872;BME280;43914;57.680;11.982;2023-02-23T05:10:23;100213.12;;;1.26;100.00
54872;BME280;43914;57.680;11.982;2023-02-23T05:12:48;100207.10;;;1.28;100.00
54872;BME280;43914;57.680;11.982;2023-02-23T05:15:14;100209.20;;;1.29;100.00
54872;BME280;43914;57.680;11.982;2023-02-23T05:17:40;100200.17;;;1.31;100.00
54872;BME280;43914;57.680;11.982;2023-02-23T05:20:08;100192.69;;;1.32;100.00
54872;BME280;43914;57.680;11.982;2023-02-23T05:22:34;100193.55;;;1.34;100.00
54872;BME280;43914;57.680;11.982;2023-02-23T05:24:59;100192.92;;;1.35;100.00
54872;BME280;43914;57.680;11.982;2023-02-23T05:27:25;100194.06;;;1.36;100.00
54872;BME280;43914;57.680;11.982;2023-02-23T05:29:51;100198.18;;;1.37;100.00
54872;BME280;43914;57.680;11.982;2023-02-23T05:32:16;100196.85;;;1.38;100.00
54872;BME280;43914;57.680;11.982;2023-02-23T05:34:42;100195.31;;;1.40;100.00
54872;BME280;43914;57.680;11.982;2023-02-23T05:37:07;100195.01;;;1.43;100.00
54872;BME280;43914;57.680;11.982;2023-02-23T05:39:34;100194.63;;;1.46;100.00
54872;BME280;43914;57.680;11.982;2023-02-23T05:41:59;100197.38;;;1.49;100.00
54872;BME280;43914;57.680;11.982;2023-02-23T05:44:25;100202.20;;;1.50;100.00
54872;BME280;43914;57.680;11.982;2023-02-23T05:46:51;100202.58;;;1.52;100.00
54872;BME280;43914;57.680;11.982;2023-02-23T05:49:17;100201.16;;;1.54;100.00
54872;BME280;43914;57.680;11.982;2023-02-23T05:51:42;100200.88;;;1.55;100.00
54872;BME280;43914;57.680;11.982;2023-02-23T05:54:08;100199.83;;;1.57;100.00
54872;BME280;43914;57.680;11.982;2023-02-23T05:56:35;100196.23;;;1.57;100.00
54872;BME280;43914;57.680;11.982;2023-02-23T05:59:00;100198.20;;;1.59;100.00
54872;BME280;43914;57.680;11.982;2023-02-23T06:01:29;100181.77;;;1.52;100.00
54872;BME280;43914;57.680;11.982;2023-02-23T06:03:55;100191.94;;;1.62;100.00
54872;BME280;43914;57.680;11.982;2023-02-23T06:06:21;100187.58;;;1.63;100.00
54872;BME280;43914;57.680;11.982;2023-02-23T06:08:50;100186.56;;;1.64;100.00
54872;BME280;43914;57.680;11.982;2023-02-23T06:11:16;100179.08;;;1.66;100.00
54872;BME280;43914;57.680;11.982;2023-02-23T06:13:41;100179.38;;;1.68;100.00
54872;BME280;43914;57.680;11.982;2023-02-23T06:16:07;100173.38;;;1.70;100.00
54872;BME280;43914;57.680;11.982;2023-02-23T06:18:33;100168.76;;;1.70;100.00
54872;BME280;43914;57.680;11.982;2023-02-23T06:21:00;100170.54;;;1.72;100.00
54872;BME280;43914;57.680;11.982;2023-02-23T06:23:29;100167.62;;;1.73;100.00
54872;BME280;43914;57.680;11.982;2023-02-23T06:25:55;100166.30;;;1.74;100.00
54872;BME280;43914;57.680;11.982;2023-02-23T06:28:21;100164.46;;;1.75;100.00
54872;BME280;43914;57.680;11.982;2023-02-23T06:30:51;100161.62;;;1.77;100.00
54872;BME280;43914;57.680;11.982;2023-02-23T06:33:17;100157.13;;;1.78;100.00
54872;BME280;43914;57.680;11.982;2023-02-23T06:35:43;100161.17;;;1.80;100.00
54872;BME280;43914;57.680;11.982;2023-02-23T06:38:09;100161.33;;;1.82;100.00
54872;BME280;43914;57.680;11.982;2023-02-23T06:40:37;100164.50;;;1.82;100.00
54872;BME280;43914;57.680;11.982;2023-02-23T06:43:02;100167.12;;;1.82;100.00
54872;BME280;43914;57.680;11.982;2023-02-23T06:45:30;100167.23;;;1.85;100.00
54872;BME280;43914;57.680;11.982;2023-02-23T06:47:59;100166.95;;;1.86;100.00
54872;BME280;43914;57.680;11.982;2023-02-23T06:50:25;100166.36;;;1.89;100.00
54872;BME280;43914;57.680;11.982;2023-02-23T06:52:51;100167.26;;;1.91;100.00
54872;BME280;43914;57.680;11.982;2023-02-23T06:55:16;100168.04;;;1.92;100.00
54872;BME280;43914;57.680;11.982;2023-02-23T06:57:42;100169.76;;;1.94;100.00
54872;BME280;43914;57.680;11.982;2023-02-23T07:00:11;100166.88;;;1.97;100.00
54872;BME280;43914;57.680;11.982;2023-02-23T07:02:42;100162.61;;;1.99;100.00
54872;BME280;43914;57.680;11.982;2023-02-23T07:05:09;100166.73;;;2.00;100.00
54872;BME280;43914;57.680;11.982;2023-02-23T07:07:35;100166.84;;;2.03;100.00
54872;BME280;43914;57.680;11.982;2023-02-23T07:10:00;100166.17;;;2.05;100.00
54872;BME280;43914;57.680;11.982;2023-02-23T07:12:26;100164.52;;;2.07;100.00
54872;BME280;43914;57.680;11.982;2023-02-23T07:14:52;100156.98;;;2.08;100.00
54872;BME280;43914;57.680;11.982;2023-02-23T07:17:17;100161.74;;;2.10;100.00
54872;BME280;43914;57.680;11.982;2023-02-23T07:19:43;100160.81;;;2.13;100.00
54872;BME280;43914;57.680;11.982;2023-02-23T07:22:09;100158.05;;;2.14;100.00
54872;BME280;43914;57.680;11.982;2023-02-23T07:24:35;100157.17;;;2.18;100.00
54872;BME280;43914;57.680;11.982;2023-02-23T07:27:00;100154.80;;;2.15;100.00
54872;BME280;43914;57.680;11.982;2023-02-23T07:29:26;100161.19;;;2.20;100.00
54872;BME280;43914;57.680;11.982;2023-02-23T07:31:54;100166.10;;;2.23;100.00
54872;BME280;43914;57.680;11.982;2023-02-23T07:34:20;100165.89;;;2.27;100.00
54872;BME280;43914;57.680;11.982;2023-02-23T07:36:46;100165.73;;;2.30;100.00
54872;BME280;43914;57.680;11.982;2023-02-23T07:39:12;100166.75;;;2.33;100.00
54872;BME280;43914;57.680;11.982;2023-02-23T07:41:38;100168.12;;;2.37;100.00
54872;BME280;43914;57.680;11.982;2023-02-23T07:44:04;100166.12;;;2.39;100.00
54872;BME280;43914;57.680;11.982;2023-02-23T07:46:29;100170.95;;;2.43;100.00
54872;BME280;43914;57.680;11.982;2023-02-23T07:48:55;100169.20;;;2.46;100.00
54872;BME280;43914;57.680;11.982;2023-02-23T07:51:21;100165.91;;;2.49;100.00
54872;BME280;43914;57.680;11.982;2023-02-23T07:53:46;100161.70;;;2.49;100.00
54872;BME280;43914;57.680;11.982;2023-02-23T07:56:12;100157.02;;;2.52;100.00
54872;BME280;43914;57.680;11.982;2023-02-23T07:58:42;100161.27;;;2.53;100.00
54872;BME280;43914;57.680;11.982;2023-02-23T08:01:10;100155.56;;;2.54;100.00
54872;BME280;43914;57.680;11.982;2023-02-23T08:03:36;100160.46;;;2.56;100.00
54872;BME280;43914;57.680;11.982;2023-02-23T08:06:04;100159.25;;;2.57;100.00
54872;BME280;43914;57.680;11.982;2023-02-23T08:08:29;100158.19;;;2.60;100.00
54872;BME280;43914;57.680;11.982;2023-02-23T08:11:00;100155.99;;;2.62;100.00
54872;BME280;43914;57.680;11.982;2023-02-23T08:13:25;100154.23;;;2.64;100.00
54872;BME280;43914;57.680;11.982;2023-02-23T08:15:51;100151.59;;;2.66;100.00
54872;BME280;43914;57.680;11.982;2023-02-23T08:18:16;100133.02;;;2.61;100.00
54872;BME280;43914;57.680;11.982;2023-02-23T08:20:42;100141.37;;;2.69;100.00
54872;BME280;43914;57.680;11.982;2023-02-23T08:23:07;100139.19;;;2.70;100.00
54872;BME280;43914;57.680;11.982;2023-02-23T08:25:34;100135.58;;;2.71;100.00
54872;BME280;43914;57.680;11.982;2023-02-23T08:28:00;100139.23;;;2.71;100.00
54872;BME280;43914;57.680;11.982;2023-02-23T08:30:29;100137.38;;;2.72;100.00
54872;BME280;43914;57.680;11.982;2023-02-23T08:32:56;100140.81;;;2.73;100.00
54872;BME280;43914;57.680;11.982;2023-02-23T08:35:22;100139.85;;;2.74;100.00
54872;BME280;43914;57.680;11.982;2023-02-23T08:37:47;100138.17;;;2.75;100.00
54872;BME280;43914;57.680;11.982;2023-02-23T08:40:13;100136.20;;;2.77;100.00
54872;BME280;43914;57.680;11.982;2023-02-23T08:42:40;100136.65;;;2.78;100.00
54872;BME280;43914;57.680;11.982;2023-02-23T08:45:07;100132.31;;;2.79;100.00
54872;BME280;43914;57.680;11.982;2023-02-23T08:47:32;100130.27;;;2.80;100.00
54872;BME280;43914;57.680;11.982;2023-02-23T08:49:59;100131.30;;;2.82;100.00
54872;BME280;43914;57.680;11.982;2023-02-23T08:52:24;100129.46;;;2.84;100.00
54872;BME280;43914;57.680;11.982;2023-02-23T08:54:50;100128.25;;;2.86;100.00
54872;BME280;43914;57.680;11.982;2023-02-23T08:57:16;100127.96;;;2.87;100.00
54872;BME280;43914;57.680;11.982;2023-02-23T08:59:41;100125.15;;;2.88;100.00
54872;BME280;43914;57.680;11.982;2023-02-23T09:02:11;100123.14;;;2.90;100.00
54872;BME280;43914;57.680;11.982;2023-02-23T09:04:37;100124.05;;;2.91;100.00
54872;BME280;43914;57.680;11.982;2023-02-23T09:07:07;100121.91;;;2.93;100.00
54872;BME280;43914;57.680;11.982;2023-02-23T09:09:32;100119.92;;;2.96;100.00
54872;BME280;43914;57.680;11.982;2023-02-23T09:12:00;100117.84;;;2.97;100.00
54872;BME280;43914;57.680;11.982;2023-02-23T09:14:26;100119.44;;;2.99;100.00
54872;BME280;43914;57.680;11.982;2023-02-23T09:16:52;100116.73;;;3.01;100.00
54872;BME280;43914;57.680;11.982;2023-02-23T09:19:17;100114.55;;;3.05;100.00
54872;BME280;43914;57.680;11.982;2023-02-23T09:21:44;100106.75;;;3.07;100.00
54872;BME280;43914;57.680;11.982;2023-02-23T09:24:09;100102.90;;;3.10;100.00
54872;BME280;43914;57.680;11.982;2023-02-23T09:26:36;100106.24;;;3.14;100.00
54872;BME280;43914;57.680;11.982;2023-02-23T09:29:05;100099.23;;;3.17;100.00
54872;BME280;43914;57.680;11.982;2023-02-23T09:31:32;100095.48;;;3.19;100.00
54872;BME280;43914;57.680;11.982;2023-02-23T09:33:58;100098.44;;;3.24;100.00
54872;BME280;43914;57.680;11.982;2023-02-23T09:36:28;100098.12;;;3.25;100.00
54872;BME280;43914;57.680;11.982;2023-02-23T09:38:55;100100.29;;;3.28;100.00
54872;BME280;43914;57.680;11.982;2023-02-23T09:43:58;100097.04;;;3.32;100.00
54872;BME280;43914;57.680;11.982;2023-02-23T09:49:03;100104.34;;;3.37;100.00
54872;BME280;43914;57.680;11.982;2023-02-23T09:51:37;100099.38;;;3.39;100.00
54872;BME280;43914;57.680;11.982;2023-02-23T09:54:04;100096.26;;;3.40;100.00
54872;BME280;43914;57.680;11.982;2023-02-23T09:56:34;100094.38;;;3.38;100.00
54872;BME280;43914;57.680;11.982;2023-02-23T09:59:03;100094.92;;;3.40;100.00
54872;BME280;43914;57.680;11.982;2023-02-23T10:04:27;100098.58;;;3.43;100.00
54872;BME280;43914;57.680;11.982;2023-02-23T10:20:52;100078.80;;;3.52;100.00
54872;BME280;43914;57.680;11.982;2023-02-23T10:23:40;100075.50;;;3.53;100.00
54872;BME280;43914;57.680;11.982;2023-02-23T10:26:14;100063.80;;;3.55;100.00
54872;BME280;43914;57.680;11.982;2023-02-23T10:28:40;100060.83;;;3.58;100.00
54872;BME280;43914;57.680;11.982;2023-02-23T10:33:54;100052.88;;;3.61;100.00
54872;BME280;43914;57.680;11.982;2023-02-23T10:36:30;100055.38;;;3.63;100.00
54872;BME280;43914;57.680;11.982;2023-02-23T10:38:58;100053.17;;;3.64;100.00
54872;BME280;43914;57.680;11.982;2023-02-23T10:41:24;100051.67;;;3.65;100.00
54872;BME280;43914;57.680;11.982;2023-02-23T10:43:49;100051.73;;;3.67;100.00
54872;BME280;43914;57.680;11.982;2023-02-23T10:46:21;100050.25;;;3.72;100.00
54872;BME280;43914;57.680;11.982;2023-02-23T10:48:50;100047.92;;;3.76;100.00
54872;BME280;43914;57.680;11.982;2023-02-23T10:51:24;100038.23;;;3.79;100.00
54872;BME280;43914;57.680;11.982;2023-02-23T10:53:52;100038.98;;;3.78;100.00
54872;BME280;43914;57.680;11.982;2023-02-23T10:56:18;100045.09;;;3.79;100.00
54872;BME280;43914;57.680;11.982;2023-02-23T10:58:56;100051.69;;;3.82;100.00
54872;BME280;43914;57.680;11.982;2023-02-23T11:01:33;100050.84;;;3.85;100.00
54872;BME280;43914;57.680;11.982;2023-02-23T11:04:29;100049.17;;;3.89;100.00
54872;BME280;43914;57.680;11.982;2023-02-23T11:07:07;100046.81;;;3.92;100.00
54872;BME280;43914;57.680;11.982;2023-02-23T11:09:33;100045.85;;;3.98;100.00
54872;BME280;43914;57.680;11.982;2023-02-23T11:12:02;100044.56;;;4.00;100.00
54872;BME280;43914;57.680;11.982;2023-02-23T11:14:30;100044.67;;;4.02;100.00
54872;BME280;43914;57.680;11.982;2023-02-23T11:16:58;100045.17;;;4.02;100.00
54872;BME280;43914;57.680;11.982;2023-02-23T11:19:34;100048.27;;;4.07;100.00
54872;BME280;43914;57.680;11.982;2023-02-23T11:22:04;100050.20;;;4.11;100.00
54872;BME280;43914;57.680;11.982;2023-02-23T11:24:39;100051.05;;;4.16;100.00
54872;BME280;43914;57.680;11.982;2023-02-23T11:27:18;100042.73;;;4.21;100.00
54872;BME280;43914;57.680;11.982;2023-02-23T11:29:45;100038.58;;;4.25;100.00
54872;BME280;43914;57.680;11.982;2023-02-23T11:32:16;100031.16;;;4.27;100.00
54872;BME280;43914;57.680;11.982;2023-02-23T11:34:45;100028.93;;;4.29;100.00
54872;BME280;43914;57.680;11.982;2023-02-23T11:42:22;100033.27;;;4.37;100.00
54872;BME280;43914;57.680;11.982;2023-02-23T11:45:37;100032.23;;;4.40;100.00
54872;BME280;43914;57.680;11.982;2023-02-23T11:47:43;100027.21;;;4.42;100.00
54872;BME280;43914;57.680;11.982;2023-02-23T11:52:47;100027.95;;;4.54;100.00
54872;BME280;43914;57.680;11.982;2023-02-23T11:55:16;100029.45;;;4.57;100.00
54872;BME280;43914;57.680;11.982;2023-02-23T11:57:44;100027.72;;;4.58;100.00
54872;BME280;43914;57.680;11.982;2023-02-23T12:00:25;100027.06;;;4.63;100.00
54872;BME280;43914;57.680;11.982;2023-02-23T12:02:55;100027.35;;;4.65;100.00
54872;BME280;43914;57.680;11.982;2023-02-23T12:05:28;100018.56;;;4.68;100.00
54872;BME280;43914;57.680;11.982;2023-02-23T12:10:43;100012.41;;;4.72;100.00
54872;BME280;43914;57.680;11.982;2023-02-23T12:16:04;100016.38;;;4.79;100.00
54872;BME280;43914;57.680;11.982;2023-02-23T12:18:53;100015.27;;;4.77;100.00
54872;BME280;43914;57.680;11.982;2023-02-23T12:27:00;100011.39;;;4.65;100.00
54872;BME280;43914;57.680;11.982;2023-02-23T12:32:23;100000.81;;;4.65;100.00
54872;BME280;43914;57.680;11.982;2023-02-23T12:34:56;100000.00;;;4.70;100.00
54872;BME280;43914;57.680;11.982;2023-02-23T12:39:56;100005.46;;;4.82;100.00
54872;BME280;43914;57.680;11.982;2023-02-23T12:42:37;100002.45;;;4.87;100.00
54872;BME280;43914;57.680;11.982;2023-02-23T12:45:12;100002.77;;;4.95;100.00
54872;BME280;43914;57.680;11.982;2023-02-23T12:47:57;100000.11;;;4.97;100.00
54872;BME280;43914;57.680;11.982;2023-02-23T12:50:30;99996.79;;;5.00;100.00
54872;BME280;43914;57.680;11.982;2023-02-23T12:53:28;99999.75;;;5.03;100.00
54872;BME280;43914;57.680;11.982;2023-02-23T13:06:49;99988.94;;;4.91;100.00
54872;BME280;43914;57.680;11.982;2023-02-23T13:09:29;99984.27;;;4.86;100.00
54872;BME280;43914;57.680;11.982;2023-02-23T13:17:37;99983.50;;;4.84;100.00
54872;BME280;43914;57.680;11.982;2023-02-23T13:20:19;99982.33;;;4.81;100.00
54872;BME280;43914;57.680;11.982;2023-02-23T13:22:59;99980.43;;;4.83;100.00
54872;BME280;43914;57.680;11.982;2023-02-23T13:28:50;99969.44;;;4.86;100.00
54872;BME280;43914;57.680;11.982;2023-02-23T13:31:25;99961.70;;;4.85;100.00
54872;BME280;43914;57.680;11.982;2023-02-23T13:33:54;99957.61;;;4.88;100.00
54872;BME280;43914;57.680;11.982;2023-02-23T13:36:26;99956.65;;;4.90;100.00
54872;BME280;43914;57.680;11.982;2023-02-23T13:39:05;99958.27;;;4.95;100.00
54872;BME280;43914;57.680;11.982;2023-02-23T13:41:39;99956.30;;;5.02;100.00
54872;BME280;43914;57.680;11.982;2023-02-23T13:44:29;99954.23;;;5.08;100.00
54872;BME280;43914;57.680;11.982;2023-02-23T13:49:51;99939.79;;;5.17;100.00
54872;BME280;43914;57.680;11.982;2023-02-23T13:52:28;99926.89;;;5.23;100.00
54872;BME280;43914;57.680;11.982;2023-02-23T13:54:59;99923.77;;;5.27;100.00
54872;BME280;43914;57.680;11.982;2023-02-23T13:57:30;99921.23;;;5.29;100.00
54872;BME280;43914;57.680;11.982;2023-02-23T14:00:02;99919.94;;;5.31;100.00
54872;BME280;43914;57.680;11.982;2023-02-23T14:05:00;99918.52;;;5.36;100.00
54872;BME280;43914;57.680;11.982;2023-02-23T14:07:29;99907.44;;;5.33;100.00
54872;BME280;43914;57.680;11.982;2023-02-23T14:09:58;99911.23;;;5.36;100.00
54872;BME280;43914;57.680;11.982;2023-02-23T14:18:02;99890.43;;;5.30;100.00
54872;BME280;43914;57.680;11.982;2023-02-23T14:26:09;99867.67;;;5.41;100.00
54872;BME280;43914;57.680;11.982;2023-02-23T14:28:41;99870.53;;;5.46;100.00
54872;BME280;43914;57.680;11.982;2023-02-23T14:39:08;99878.60;;;5.52;100.00
54872;BME280;43914;57.680;11.982;2023-02-23T14:41:45;99874.84;;;5.54;100.00
54872;BME280;43914;57.680;11.982;2023-02-23T14:44:30;99879.93;;;5.53;100.00
54872;BME280;43914;57.680;11.982;2023-02-23T14:49:35;99889.32;;;5.55;100.00
54872;BME280;43914;57.680;11.982;2023-02-23T14:52:26;99883.43;;;5.53;100.00
54872;BME280;43914;57.680;11.982;2023-02-23T14:55:21;99880.48;;;5.51;100.00
54872;BME280;43914;57.680;11.982;2023-02-23T14:57:49;99887.09;;;5.49;100.00
54872;BME280;43914;57.680;11.982;2023-02-23T15:00:26;99890.27;;;5.47;100.00
54872;BME280;43914;57.680;11.982;2023-02-23T15:03:01;99890.08;;;5.42;100.00
54872;BME280;43914;57.680;11.982;2023-02-23T15:05:31;99892.20;;;5.40;100.00
54872;BME280;43914;57.680;11.982;2023-02-23T15:08:00;99893.80;;;5.36;100.00
54872;BME280;43914;57.680;11.982;2023-02-23T15:10:31;99889.77;;;5.32;100.00
54872;BME280;43914;57.680;11.982;2023-02-23T15:12:58;99893.42;;;5.28;100.00
54872;BME280;43914;57.680;11.982;2023-02-23T15:15:25;99888.41;;;5.24;100.00
54872;BME280;43914;57.680;11.982;2023-02-23T15:17:54;99886.85;;;5.22;100.00